Time;durP1;ratioP1;P1;durP2;ratioP2;P2;SDS_P1;SDS_P2;PMS_P1;PMS_P2;Temp;Humidity;BMP_temperature;BMP_pressure;BME280_temperature;BME280_humidity;BME280_pressure;Samples;Min_cycle;Max_cycle;Signal;HPM_P1;HPM_P2
2022/06/14 00:03:05;;;;;;;;;;;;;;;20.40;66.91;100439.06;5016180;28;19963;-91
2022/06/14 00:05:32;;;;;;;;;;;;;;;20.41;66.60;100442.63;4998650;28;19982;-92
2022/06/14 00:08:00;;;;;;;;;;;;;;;20.47;66.35;100443.63;5019005;28;19928;-90
2022/06/14 00:10:26;;;;;;;;;;;;;;;20.53;66.07;100439.94;5017655;28;20365;-91
2022/06/14 00:12:53;;;;;;;;;;;;;;;20.55;66.49;100438.66;5015273;28;19921;-90
2022/06/14 00:15:22;;;;;;;;;;;;;;;20.50;66.43;100448.59;5017021;28;19997;-89
2022/06/14 00:17:47;;;;;;;;;;;;;;;20.48;66.55;100439.81;5008714;28;19976;-91
2022/06/14 00:20:13;;;;;;;;;;;;;;;20.54;66.51;100444.34;5012925;28;19922;-90
2022/06/14 00:22:41;;;;;;;;;;;;;;;20.48;66.65;100448.00;5018941;28;19936;-91
2022/06/14 00:25:08;;;;;;;;;;;;;;;20.45;66.92;100447.41;5030660;28;19922;-91
2022/06/14 00:27:34;;;;;;;;;;;;;;;20.45;66.94;100447.41;5019392;28;19917;-90
2022/06/14 00:30:02;;;;;;;;;;;;;;;20.53;66.72;100437.22;5021551;28;19924;-90
2022/06/14 00:32:27;;;;;;;;;;;;;;;20.59;66.41;100441.78;5035325;28;19924;-89
2022/06/14 00:34:53;;;;;;;;;;;;;;;20.56;66.71;100436.81;5016226;28;19905;-91
2022/06/14 00:37:20;;;;;;;;;;;;;;;20.60;66.44;100443.44;5023774;28;19932;-92
2022/06/14 00:39:47;;;;;;;;;;;;;;;20.60;66.28;100440.72;5027056;28;19917;-91
2022/06/14 00:42:18;;;;;;;;;;;;;;;20.61;66.11;100436.94;5030931;28;19917;-90
2022/06/14 00:45:02;;;;;;;;;;;;;;;20.61;66.20;100447.84;5026078;28;19967;-89
2022/06/14 00:47:28;;;;;;;;;;;;;;;20.55;66.30;100444.09;5012982;28;19922;-89
2022/06/14 00:49:56;;;;;;;;;;;;;;;20.59;66.17;100439.88;5015125;28;20009;-92
2022/06/14 00:52:27;;;;;;;;;;;;;;;20.62;66.01;100435.84;4997823;28;19917;-92
2022/06/14 00:54:53;;;;;;;;;;;;;;;20.64;66.01;100440.00;5014397;28;19920;-92
2022/06/14 00:57:39;;;;;;;;;;;;;;;20.64;66.04;100441.91;4997130;28;20337;-91
2022/06/14 01:00:09;;;;;;;;;;;;;;;20.66;66.24;100443.34;5014216;28;19917;-94
2022/06/14 01:02:40;;;;;;;;;;;;;;;20.65;66.00;100440.88;5016766;28;19921;-92
2022/06/14 01:05:07;;;;;;;;;;;;;;;20.72;65.83;100438.00;5008767;28;19914;-91
2022/06/14 01:07:35;;;;;;;;;;;;;;;20.69;65.51;100436.59;5003615;28;20496;-92
2022/06/14 01:10:01;;;;;;;;;;;;;;;20.68;65.54;100432.19;5017471;28;19914;-92
2022/06/14 01:12:27;;;;;;;;;;;;;;;20.74;65.41;100438.63;5014521;28;19924;-92
2022/06/14 01:14:58;;;;;;;;;;;;;;;20.76;65.34;100429.13;5013235;28;19921;-92
2022/06/14 01:17:29;;;;;;;;;;;;;;;20.80;64.99;100433.06;5017783;28;20397;-92
2022/06/14 01:19:56;;;;;;;;;;;;;;;20.90;64.67;100418.81;5017852;28;19944;-93
2022/06/14 01:22:23;;;;;;;;;;;;;;;20.98;64.65;100428.59;5001590;28;19921;-92
2022/06/14 01:24:49;;;;;;;;;;;;;;;20.93;64.38;100426.56;5019800;28;19925;-92
2022/06/14 01:27:15;;;;;;;;;;;;;;;20.89;64.42;100435.47;5030974;28;19922;-93
2022/06/14 01:29:45;;;;;;;;;;;;;;;20.92;63.46;100435.00;5017912;28;20007;-91
2022/06/14 01:32:13;;;;;;;;;;;;;;;21.04;63.93;100433.09;5018900;28;19980;-91
2022/06/14 01:34:41;;;;;;;;;;;;;;;21.10;62.20;100423.97;5009101;28;20004;-92
2022/06/14 01:37:06;;;;;;;;;;;;;;;21.15;61.92;100428.72;5036205;28;19917;-91
2022/06/14 01:39:32;;;;;;;;;;;;;;;21.14;61.94;100427.91;5031381;28;19952;-91
2022/06/14 01:42:00;;;;;;;;;;;;;;;21.26;61.41;100436.94;5026412;28;19918;-90
2022/06/14 01:44:28;;;;;;;;;;;;;;;21.29;60.99;100432.88;5019909;28;20016;-91
2022/06/14 01:47:20;;;;;;;;;;;;;;;21.33;61.21;100430.50;5028112;28;19920;-90
2022/06/14 01:53:07;;;;;;;;;;;;;;;21.45;62.31;100434.94;5021565;28;20372;-92
2022/06/14 01:55:32;;;;;;;;;;;;;;;21.25;63.26;100428.97;5006915;28;19913;-91
2022/06/14 01:57:57;;;;;;;;;;;;;;;21.37;63.29;100438.00;5014369;28;19916;-92
2022/06/14 02:00:24;;;;;;;;;;;;;;;21.31;63.26;100440.88;5012970;28;19932;-92
2022/06/14 02:05:53;;;;;;;;;;;;;;;21.41;63.14;100438.41;5020878;28;19964;-91
2022/06/14 02:08:24;;;;;;;;;;;;;;;21.43;63.11;100437.06;5025421;28;20385;-92
2022/06/14 02:11:10;;;;;;;;;;;;;;;21.38;62.94;100439.66;5015396;28;20289;-93
2022/06/14 02:13:44;;;;;;;;;;;;;;;21.28;63.54;100440.28;5019088;28;19971;-93
2022/06/14 02:16:37;;;;;;;;;;;;;;;21.33;63.44;100442.28;5021359;28;20298;-92
2022/06/14 02:19:10;;;;;;;;;;;;;;;21.18;63.87;100445.47;5018281;28;20365;-92
2022/06/14 02:21:37;;;;;;;;;;;;;;;21.19;63.86;100447.16;5001255;28;19918;-91
2022/06/14 02:24:19;;;;;;;;;;;;;;;21.27;63.61;100446.78;5014713;28;19963;-91
2022/06/14 02:27:09;;;;;;;;;;;;;;;21.29;63.70;100447.38;5024975;28;19918;-92
2022/06/14 02:30:05;;;;;;;;;;;;;;;21.27;63.81;100449.53;5027071;28;19921;-92
2022/06/14 02:32:50;;;;;;;;;;;;;;;21.34;63.54;100451.31;5023397;28;19913;-92
2022/06/14 02:35:35;;;;;;;;;;;;;;;21.31;63.65;100449.06;5027054;28;19963;-91
2022/06/14 02:38:19;;;;;;;;;;;;;;;21.22;64.01;100445.84;5021854;28;19960;-91
2022/06/14 02:40:46;;;;;;;;;;;;;;;21.19;64.25;100441.69;5021219;28;19909;-91
2022/06/14 02:43:20;;;;;;;;;;;;;;;21.19;63.93;100444.41;5014344;28;19917;-92
2022/06/14 02:45:46;;;;;;;;;;;;;;;21.11;64.43;100454.84;5011524;28;19922;-92
2022/06/14 02:48:16;;;;;;;;;;;;;;;21.08;64.52;100461.63;5011928;28;19921;-92
2022/06/14 02:50:48;;;;;;;;;;;;;;;21.01;64.59;100463.63;5027357;28;19897;-93
2022/06/14 02:53:23;;;;;;;;;;;;;;;21.03;64.48;100461.50;5031476;28;20710;-91
2022/06/14 02:56:12;;;;;;;;;;;;;;;21.07;64.51;100468.16;5035244;28;19936;-91
2022/06/14 02:58:44;;;;;;;;;;;;;;;21.07;64.36;100459.94;5027689;28;19910;-91
2022/06/14 03:01:29;;;;;;;;;;;;;;;20.98;65.05;100466.84;5032139;28;19913;-91
2022/06/14 03:03:56;;;;;;;;;;;;;;;20.94;65.02;100462.91;5035459;28;20038;-91
2022/06/14 03:06:35;;;;;;;;;;;;;;;20.92;64.85;100471.34;5018408;28;20404;-90
2022/06/14 03:09:04;;;;;;;;;;;;;;;21.03;64.58;100470.53;5024447;28;19968;-91
2022/06/14 03:11:50;;;;;;;;;;;;;;;21.08;64.32;100476.13;5034538;28;19917;-93
2022/06/14 03:14:36;;;;;;;;;;;;;;;21.05;64.48;100478.50;5021635;28;19923;-94
2022/06/14 03:17:18;;;;;;;;;;;;;;;20.93;65.18;100474.91;5020752;28;19928;-90
2022/06/14 03:20:02;;;;;;;;;;;;;;;21.06;64.42;100475.53;5014053;28;20314;-92
2022/06/14 03:22:44;;;;;;;;;;;;;;;21.15;64.14;100467.81;5002673;28;19980;-93
2022/06/14 03:25:29;;;;;;;;;;;;;;;21.13;64.09;100466.41;5020982;28;19926;-90
2022/06/14 03:28:01;;;;;;;;;;;;;;;21.13;64.05;100475.41;5033786;28;19924;-92
2022/06/14 03:30:30;;;;;;;;;;;;;;;21.25;63.61;100468.06;5014978;28;19929;-91
2022/06/14 03:33:27;;;;;;;;;;;;;;;21.26;63.63;100477.94;5006990;28;19913;-92
2022/06/14 03:35:53;;;;;;;;;;;;;;;21.22;63.89;100473.19;5022802;28;19924;-92
2022/06/14 03:38:30;;;;;;;;;;;;;;;21.36;63.76;100473.78;5031723;28;19905;-91
2022/06/14 03:40:55;;;;;;;;;;;;;;;21.50;63.16;100478.00;5021734;28;19918;-91
2022/06/14 03:43:20;;;;;;;;;;;;;;;21.38;63.32;100477.97;5024087;28;19917;-92
2022/06/14 03:46:11;;;;;;;;;;;;;;;21.55;62.94;100477.28;5009645;28;19975;-92
2022/06/14 03:48:40;;;;;;;;;;;;;;;21.41;63.30;100476.69;5034890;28;19918;-90
2022/06/14 03:51:08;;;;;;;;;;;;;;;21.48;63.23;100471.91;5024165;28;20291;-91
2022/06/14 03:53:37;;;;;;;;;;;;;;;21.66;62.90;100473.72;5017761;28;19976;-92
2022/06/14 03:56:22;;;;;;;;;;;;;;;21.74;62.78;100477.97;5016984;28;19937;-92
2022/06/14 03:59:21;;;;;;;;;;;;;;;21.91;62.29;100479.75;5018166;28;19997;-93
2022/06/14 04:01:59;;;;;;;;;;;;;;;22.04;61.73;100480.56;4971278;28;20347;-91
2022/06/14 04:04:55;;;;;;;;;;;;;;;22.27;60.83;100480.53;5029255;28;19918;-93
2022/06/14 04:07:29;;;;;;;;;;;;;;;22.49;60.08;100477.94;5016250;28;19913;-91
2022/06/14 04:10:06;;;;;;;;;;;;;;;22.62;59.80;100476.84;5022307;28;19928;-92
2022/06/14 04:12:48;;;;;;;;;;;;;;;22.77;59.21;100479.00;5005927;28;20301;-90
2022/06/14 04:15:31;;;;;;;;;;;;;;;22.86;58.96;100482.19;5025044;28;20024;-91
2022/06/14 04:21:00;;;;;;;;;;;;;;;23.20;58.02;100484.97;5028681;28;19952;-90
2022/06/14 04:23:44;;;;;;;;;;;;;;;23.33;57.59;100488.22;5022864;28;19917;-88
2022/06/14 04:26:12;;;;;;;;;;;;;;;23.35;57.17;100488.81;5028782;28;19921;-93
2022/06/14 04:28:40;;;;;;;;;;;;;;;23.50;57.27;100487.38;5036415;28;19928;-90
2022/06/14 04:31:22;;;;;;;;;;;;;;;23.62;56.65;100496.34;5036944;28;19964;-93
2022/06/14 04:33:57;;;;;;;;;;;;;;;23.76;56.26;100505.09;5015789;28;19957;-94
2022/06/14 04:36:37;;;;;;;;;;;;;;;23.97;55.84;100503.47;5032024;28;19920;-93
2022/06/14 04:39:23;;;;;;;;;;;;;;;24.11;55.25;100510.25;5024289;28;19943;-90
2022/06/14 04:41:52;;;;;;;;;;;;;;;24.23;54.67;100518.38;5017621;28;19921;-89
2022/06/14 04:44:21;;;;;;;;;;;;;;;24.26;54.77;100514.31;5009707;28;19952;-89
2022/06/14 04:46:52;;;;;;;;;;;;;;;24.49;54.34;100519.56;5013395;28;19921;-91
2022/06/14 04:49:33;;;;;;;;;;;;;;;24.60;53.75;100523.25;5012478;28;19929;-92
2022/06/14 04:52:19;;;;;;;;;;;;;;;24.81;53.61;100529.78;5010097;28;19987;-91
2022/06/14 04:54:48;;;;;;;;;;;;;;;25.01;53.90;100527.25;5029618;28;19958;-94
2022/06/14 04:57:28;;;;;;;;;;;;;;;25.29;52.82;100530.84;5003052;28;19940;-92
2022/06/14 05:00:05;;;;;;;;;;;;;;;25.44;52.62;100525.47;5018220;28;20382;-91
2022/06/14 05:02:59;;;;;;;;;;;;;;;25.84;51.61;100526.84;5008681;28;20332;-92
2022/06/14 05:06:06;;;;;;;;;;;;;;;26.04;50.91;100525.34;5007819;28;19901;-92
2022/06/14 05:08:34;;;;;;;;;;;;;;;25.94;50.97;100530.78;5020002;28;19923;-88
2022/06/14 05:11:16;;;;;;;;;;;;;;;26.27;50.94;100530.44;4994263;28;20270;-88
2022/06/14 05:13:51;;;;;;;;;;;;;;;26.51;50.53;100532.72;5014599;28;19940;-88
2022/06/14 05:16:19;;;;;;;;;;;;;;;26.69;49.42;100532.28;5011476;28;19970;-89
2022/06/14 05:18:57;;;;;;;;;;;;;;;26.86;49.35;100531.22;4987781;28;19918;-89
2022/06/14 05:21:25;;;;;;;;;;;;;;;26.98;49.42;100534.53;5005515;28;19929;-91
2022/06/14 05:23:53;;;;;;;;;;;;;;;27.01;48.38;100539.50;5028853;28;19917;-92
2022/06/14 05:26:28;;;;;;;;;;;;;;;27.13;48.42;100537.28;5009331;28;20288;-88
2022/06/14 05:29:12;;;;;;;;;;;;;;;27.29;48.04;100545.63;5007235;28;20338;-88
2022/06/14 05:31:43;;;;;;;;;;;;;;;27.48;47.42;100546.72;5028774;28;19932;-90
2022/06/14 05:34:12;;;;;;;;;;;;;;;27.62;47.72;100554.47;5013121;28;19944;-90
2022/06/14 05:36:40;;;;;;;;;;;;;;;27.79;47.18;100546.69;5009656;28;20420;-89
2022/06/14 05:39:09;;;;;;;;;;;;;;;27.76;46.43;100545.31;5024496;28;19921;-86
2022/06/14 05:41:36;;;;;;;;;;;;;;;27.80;46.99;100540.09;5024056;28;19925;-87
2022/06/14 05:44:06;;;;;;;;;;;;;;;28.00;46.74;100544.75;5005936;28;19952;-89
2022/06/14 05:46:50;;;;;;;;;;;;;;;28.09;46.00;100545.84;5003965;28;19991;-87
2022/06/14 05:49:25;;;;;;;;;;;;;;;28.10;45.81;100554.97;5006699;28;20292;-86
2022/06/14 05:51:51;;;;;;;;;;;;;;;28.34;45.57;100549.63;5006521;28;20321;-87
2022/06/14 05:54:23;;;;;;;;;;;;;;;28.27;45.77;100544.41;5017286;28;19925;-87
2022/06/14 05:57:21;;;;;;;;;;;;;;;28.45;45.47;100551.25;5005131;28;19992;-91
2022/06/14 05:59:52;;;;;;;;;;;;;;;28.54;44.86;100544.06;5011496;28;19944;-88
2022/06/14 06:02:24;;;;;;;;;;;;;;;28.77;44.48;100539.75;5012078;28;19940;-88
2022/06/14 06:04:55;;;;;;;;;;;;;;;29.02;44.16;100549.84;5023110;28;19913;-88
2022/06/14 06:07:25;;;;;;;;;;;;;;;29.20;44.16;100545.63;5009177;28;19968;-90
2022/06/14 06:09:52;;;;;;;;;;;;;;;29.44;43.06;100553.19;5005370;28;20016;-88
2022/06/14 06:12:26;;;;;;;;;;;;;;;29.58;43.19;100551.38;5013068;28;20385;-84
2022/06/14 06:15:02;;;;;;;;;;;;;;;29.78;43.38;100560.66;5007262;28;20385;-84
2022/06/14 06:17:30;;;;;;;;;;;;;;;30.04;42.11;100553.75;5010573;28;19971;-84
2022/06/14 06:19:59;;;;;;;;;;;;;;;30.21;41.71;100558.81;5006436;28;19914;-86
2022/06/14 06:22:36;;;;;;;;;;;;;;;30.54;41.45;100555.41;5011096;28;19917;-85
2022/06/14 06:25:08;;;;;;;;;;;;;;;30.78;40.67;100555.34;5007860;28;20001;-87
2022/06/14 06:27:40;;;;;;;;;;;;;;;30.87;40.62;100562.72;5009542;28;19917;-85
2022/06/14 06:30:17;;;;;;;;;;;;;;;31.14;40.25;100561.25;5010467;28;19926;-86
2022/06/14 06:32:44;;;;;;;;;;;;;;;31.35;40.00;100564.50;5004476;28;19905;-84
2022/06/14 06:35:10;;;;;;;;;;;;;;;31.62;40.00;100563.81;5015804;28;19914;-85
2022/06/14 06:37:38;;;;;;;;;;;;;;;31.84;39.02;100562.31;4996855;28;19922;-86
2022/06/14 06:40:05;;;;;;;;;;;;;;;31.82;38.55;100567.34;5012515;28;19941;-85
2022/06/14 06:42:49;;;;;;;;;;;;;;;31.81;38.79;100565.69;5020614;28;19948;-85
2022/06/14 06:45:19;;;;;;;;;;;;;;;32.01;38.21;100564.50;5002315;28;20015;-86
2022/06/14 06:47:49;;;;;;;;;;;;;;;32.04;38.52;100570.28;5009572;28;20370;-85
2022/06/14 06:50:15;;;;;;;;;;;;;;;32.35;38.04;100566.91;5014217;28;19917;-86
2022/06/14 06:52:49;;;;;;;;;;;;;;;32.41;38.30;100568.47;5013875;28;19914;-86
2022/06/14 06:55:23;;;;;;;;;;;;;;;32.53;37.66;100571.56;5019917;28;19940;-86
2022/06/14 06:57:50;;;;;;;;;;;;;;;32.50;36.75;100569.41;5013025;28;19921;-85
2022/06/14 07:00:19;;;;;;;;;;;;;;;32.55;37.32;100574.03;5005031;28;19913;-86
2022/06/14 07:02:52;;;;;;;;;;;;;;;32.87;36.50;100558.31;5014848;28;20086;-89
2022/06/14 07:05:17;;;;;;;;;;;;;;;32.95;36.18;100560.34;5021152;28;20031;-86
2022/06/14 07:07:58;;;;;;;;;;;;;;;33.08;36.22;100565.06;5009923;28;19921;-87
2022/06/14 07:10:36;;;;;;;;;;;;;;;32.92;36.46;100567.38;5011485;28;19913;-90
2022/06/14 07:13:03;;;;;;;;;;;;;;;32.84;36.84;100576.47;5010969;28;19980;-91
2022/06/14 07:15:50;;;;;;;;;;;;;;;33.07;35.94;100568.19;5013580;28;20122;-93
2022/06/14 07:18:15;;;;;;;;;;;;;;;33.42;35.86;100567.31;5016716;28;19918;-92
2022/06/14 07:20:48;;;;;;;;;;;;;;;33.43;34.96;100577.34;5012635;28;19915;-92
2022/06/14 07:23:23;;;;;;;;;;;;;;;33.38;34.51;100566.28;5010595;28;19925;-90
2022/06/14 07:26:00;;;;;;;;;;;;;;;33.61;33.24;100571.91;5030399;28;19920;-92
2022/06/14 07:28:42;;;;;;;;;;;;;;;33.71;32.51;100571.63;5012693;28;20000;-90
2022/06/14 07:31:09;;;;;;;;;;;;;;;33.97;32.99;100582.09;5015974;28;20451;-92
2022/06/14 07:33:36;;;;;;;;;;;;;;;33.67;32.70;100592.94;5031574;28;19968;-90
2022/06/14 07:36:11;;;;;;;;;;;;;;;33.98;32.42;100586.53;5024415;28;19921;-93
2022/06/14 07:38:52;;;;;;;;;;;;;;;34.30;32.88;100588.16;5021798;28;19940;-91
2022/06/14 07:41:29;;;;;;;;;;;;;;;34.26;33.31;100587.19;5021795;28;19929;-93
2022/06/14 07:43:56;;;;;;;;;;;;;;;34.37;33.39;100587.69;5032070;28;19932;-89
2022/06/14 07:46:25;;;;;;;;;;;;;;;35.02;32.27;100589.66;5017131;28;19925;-90
2022/06/14 07:49:12;;;;;;;;;;;;;;;34.82;32.27;100593.94;5008598;28;19901;-93
2022/06/14 07:51:59;;;;;;;;;;;;;;;34.85;32.28;100592.44;5012831;28;19921;-86
2022/06/14 07:54:45;;;;;;;;;;;;;;;34.87;31.87;100592.94;5011254;28;19953;-90
2022/06/14 07:57:13;;;;;;;;;;;;;;;34.99;31.03;100587.53;5012020;28;19923;-91
2022/06/14 07:59:52;;;;;;;;;;;;;;;35.13;31.14;100581.81;5011383;28;19929;-95
2022/06/14 08:02:24;;;;;;;;;;;;;;;35.39;30.63;100590.19;5009595;28;19921;-90
2022/06/14 08:04:59;;;;;;;;;;;;;;;35.35;30.56;100585.59;5015990;28;19909;-87
2022/06/14 08:07:25;;;;;;;;;;;;;;;35.24;29.92;100582.34;4998120;28;19923;-89
2022/06/14 08:09:58;;;;;;;;;;;;;;;35.39;29.74;100589.38;5022993;28;19917;-91
2022/06/14 08:12:32;;;;;;;;;;;;;;;35.67;29.87;100590.66;5025442;28;19936;-90
2022/06/14 08:15:01;;;;;;;;;;;;;;;35.81;29.22;100587.69;5013978;28;19926;-90
2022/06/14 08:17:45;;;;;;;;;;;;;;;35.39;29.61;100583.78;5015130;28;19913;-90
2022/06/14 08:20:36;;;;;;;;;;;;;;;35.35;29.75;100583.63;5020731;28;19913;-87
2022/06/14 08:23:08;;;;;;;;;;;;;;;34.82;30.56;100590.31;5007036;28;19913;-91
2022/06/14 08:25:38;;;;;;;;;;;;;;;34.48;30.44;100592.66;5015391;28;20358;-87
2022/06/14 08:28:08;;;;;;;;;;;;;;;34.12;31.29;100592.06;4995160;28;19922;-92
2022/06/14 08:30:38;;;;;;;;;;;;;;;33.87;32.15;100590.75;5020053;28;19917;-94
2022/06/14 08:33:10;;;;;;;;;;;;;;;33.91;32.10;100587.00;5022269;28;19923;-93
2022/06/14 08:35:38;;;;;;;;;;;;;;;34.30;31.38;100592.94;5015177;28;19923;-90
2022/06/14 08:38:11;;;;;;;;;;;;;;;34.37;31.30;100587.69;5015096;28;20047;-84
2022/06/14 08:41:15;;;;;;;;;;;;;;;34.14;31.95;100584.16;5025375;28;20326;-89
2022/06/14 08:43:43;;;;;;;;;;;;;;;34.49;31.59;100585.13;4951117;28;19914;-91
2022/06/14 08:46:34;;;;;;;;;;;;;;;35.04;30.87;100589.34;5012169;28;19940;-93
2022/06/14 08:49:18;;;;;;;;;;;;;;;35.39;29.97;100589.38;4994689;28;19920;-92
2022/06/14 08:51:46;;;;;;;;;;;;;;;35.42;29.41;100588.72;5004836;28;19921;-90
2022/06/14 08:54:40;;;;;;;;;;;;;;;35.72;29.04;100581.28;5013449;28;20385;-89
2022/06/14 08:57:21;;;;;;;;;;;;;;;36.22;28.35;100586.25;5007906;28;20365;-94
2022/06/14 08:59:49;;;;;;;;;;;;;;;36.91;27.64;100601.03;5009170;28;19991;-90
2022/06/14 09:02:36;;;;;;;;;;;;;;;37.63;27.17;100595.34;5016406;28;19917;-90
2022/06/14 09:05:23;;;;;;;;;;;;;;;38.29;25.98;100600.06;5011988;28;19964;-89
2022/06/14 09:07:58;;;;;;;;;;;;;;;38.95;25.42;100594.19;5034445;28;19917;-92
2022/06/14 09:10:42;;;;;;;;;;;;;;;39.17;24.33;100594.81;5004001;28;19914;-90
2022/06/14 09:13:11;;;;;;;;;;;;;;;39.20;24.92;100606.19;5012852;28;19921;-90
2022/06/14 09:15:49;;;;;;;;;;;;;;;39.74;24.55;100607.72;5016862;28;19924;-90
2022/06/14 09:18:23;;;;;;;;;;;;;;;39.86;23.93;100598.44;5022425;28;19921;-90
2022/06/14 09:21:07;;;;;;;;;;;;;;;39.56;24.60;100610.03;5017958;28;19917;-90
2022/06/14 09:23:44;;;;;;;;;;;;;;;39.88;23.86;100605.31;5016611;28;19967;-92
2022/06/14 09:26:45;;;;;;;;;;;;;;;39.82;23.40;100592.69;5018574;28;19913;-91
2022/06/14 09:29:31;;;;;;;;;;;;;;;40.66;23.05;100602.03;5017703;28;19917;-90
2022/06/14 09:32:15;;;;;;;;;;;;;;;41.13;22.28;100599.09;5015035;28;19917;-87
2022/06/14 09:35:00;;;;;;;;;;;;;;;41.42;21.86;100605.34;5010900;28;19972;-89
2022/06/14 09:37:26;;;;;;;;;;;;;;;41.47;21.79;100595.78;5030716;28;19910;-88
2022/06/14 09:40:10;;;;;;;;;;;;;;;42.04;20.91;100599.69;5015671;28;19916;-88
2022/06/14 09:42:45;;;;;;;;;;;;;;;42.37;20.71;100604.66;5012941;28;19913;-87
2022/06/14 09:45:29;;;;;;;;;;;;;;;43.45;19.64;100602.59;5028448;28;19905;-89
2022/06/14 09:48:13;;;;;;;;;;;;;;;43.66;18.93;100600.00;5029394;28;20344;-94
2022/06/14 09:50:42;;;;;;;;;;;;;;;43.50;20.02;100599.41;5011600;28;19953;-93
2022/06/14 09:53:23;;;;;;;;;;;;;;;44.56;18.15;100598.81;5024235;28;19932;-94
2022/06/14 09:55:54;;;;;;;;;;;;;;;44.43;18.70;100597.50;4977557;28;20358;-94
2022/06/14 09:58:23;;;;;;;;;;;;;;;44.22;18.54;100604.59;5019917;28;19917;-93
2022/06/14 10:01:07;;;;;;;;;;;;;;;45.10;18.12;100590.63;5028350;28;19905;-94
2022/06/14 10:03:51;;;;;;;;;;;;;;;45.94;17.79;100593.25;5033654;28;19968;-94
2022/06/14 10:06:22;;;;;;;;;;;;;;;44.17;19.11;100593.63;5020560;28;19948;-94
2022/06/14 10:09:06;;;;;;;;;;;;;;;43.31;19.51;100591.91;4986989;28;19914;-95
2022/06/14 10:11:42;;;;;;;;;;;;;;;43.32;18.83;100594.38;5018135;28;20259;-94
2022/06/14 10:14:10;;;;;;;;;;;;;;;43.74;18.18;100593.22;4999596;28;20086;-88
2022/06/14 10:17:11;;;;;;;;;;;;;;;43.89;17.73;100590.53;5011762;28;19921;-90
2022/06/14 10:19:54;;;;;;;;;;;;;;;41.73;19.72;100593.06;4940790;28;19914;-89
2022/06/14 10:22:44;;;;;;;;;;;;;;;43.27;18.51;100574.91;5022021;28;19960;-93
2022/06/14 10:28:11;;;;;;;;;;;;;;;42.57;19.60;100571.53;5034785;28;19921;-95
2022/06/14 10:28:50;;;;;;;;;;;;;;;44.06;18.30;100577.75;4993838;28;19917;-91
2022/06/14 10:32:12;;;;;;;;;;;;;;;43.99;18.57;100573.63;5019346;28;19920;-90
2022/06/14 10:34:56;;;;;;;;;;;;;;;43.91;18.38;100573.97;4966232;28;19918;-91
2022/06/14 10:37:32;;;;;;;;;;;;;;;42.96;19.25;100561.97;4947226;28;19926;-90
2022/06/14 10:40:22;;;;;;;;;;;;;;;42.96;19.10;100574.06;5006823;28;19964;-93
2022/06/14 10:42:57;;;;;;;;;;;;;;;42.75;18.86;100559.63;5008731;28;19948;-90
2022/06/14 10:45:31;;;;;;;;;;;;;;;42.33;19.55;100560.63;5007554;28;19924;-89
2022/06/14 10:48:15;;;;;;;;;;;;;;;42.05;19.92;100553.31;5020065;28;19917;-89
2022/06/14 10:50:59;;;;;;;;;;;;;;;41.45;20.75;100561.47;5026573;28;19925;-92
2022/06/14 10:53:34;;;;;;;;;;;;;;;41.20;20.49;100555.34;5012679;28;19918;-88
2022/06/14 10:56:07;;;;;;;;;;;;;;;41.03;21.00;100548.94;5013447;28;19943;-91
2022/06/14 10:58:51;;;;;;;;;;;;;;;40.09;22.33;100548.75;4993992;28;20008;-86
2022/06/14 11:01:26;;;;;;;;;;;;;;;40.04;22.57;100551.88;5012188;28;19921;-87
2022/06/14 11:04:07;;;;;;;;;;;;;;;39.87;22.77;100543.75;4968505;28;19933;-89
2022/06/14 11:06:39;;;;;;;;;;;;;;;39.61;23.13;100547.88;4970506;28;19949;-89
2022/06/14 11:09:10;;;;;;;;;;;;;;;39.54;23.41;100530.81;4971098;28;20005;-88
2022/06/14 11:11:54;;;;;;;;;;;;;;;39.50;23.41;100538.38;4970636;28;19918;-89
2022/06/14 11:14:31;;;;;;;;;;;;;;;39.44;23.38;100537.00;4954048;28;20013;-87
2022/06/14 11:17:20;;;;;;;;;;;;;;;39.38;23.16;100532.78;4971423;28;20457;-89
2022/06/14 11:19:48;;;;;;;;;;;;;;;39.48;23.24;100521.03;4969984;28;20029;-88
2022/06/14 11:22:29;;;;;;;;;;;;;;;39.13;23.17;100521.66;4974029;28;19914;-89
2022/06/14 11:24:56;;;;;;;;;;;;;;;39.03;23.44;100525.78;4970232;28;20437;-89
2022/06/14 11:27:24;;;;;;;;;;;;;;;38.55;22.43;100515.50;4959758;28;20392;-88
2022/06/14 11:29:49;;;;;;;;;;;;;;;38.32;23.53;100518.75;5007508;28;20308;-87
2022/06/14 11:32:19;;;;;;;;;;;;;;;38.38;23.61;100508.13;5012791;28;19933;-88
2022/06/14 11:34:45;;;;;;;;;;;;;;;38.34;23.85;100510.81;4992110;28;19924;-87
2022/06/14 11:37:20;;;;;;;;;;;;;;;38.13;24.62;100502.50;5017840;28;19944;-89
2022/06/14 11:39:48;;;;;;;;;;;;;;;37.88;25.47;100498.84;5023900;28;19966;-88
2022/06/14 11:42:20;;;;;;;;;;;;;;;38.13;25.21;100493.28;5024201;28;19917;-87
2022/06/14 11:45:07;;;;;;;;;;;;;;;38.06;25.25;100495.88;5006476;28;19976;-88
2022/06/14 11:47:51;;;;;;;;;;;;;;;38.24;24.60;100486.03;5022108;28;19921;-88
2022/06/14 11:50:16;;;;;;;;;;;;;;;38.07;25.01;100486.25;5034321;28;19909;-88
2022/06/14 11:53:11;;;;;;;;;;;;;;;38.20;24.47;100480.28;5014776;28;20008;-88
2022/06/14 11:55:37;;;;;;;;;;;;;;;38.20;25.51;100482.28;4980048;28;20039;-88
2022/06/14 11:58:08;;;;;;;;;;;;;;;38.10;25.64;100485.56;5012212;28;19932;-86
2022/06/14 12:00:39;;;;;;;;;;;;;;;38.08;25.43;100482.31;5014746;28;19924;-86
2022/06/14 12:03:08;;;;;;;;;;;;;;;38.05;25.30;100489.44;5011058;28;19925;-86
2022/06/14 12:05:37;;;;;;;;;;;;;;;37.73;24.56;100479.91;5007006;28;19913;-87
2022/06/14 12:08:02;;;;;;;;;;;;;;;37.83;24.68;100487.06;5012280;28;19928;-88
2022/06/14 12:10:39;;;;;;;;;;;;;;;37.70;23.92;100489.03;5016515;28;20029;-88
2022/06/14 12:13:17;;;;;;;;;;;;;;;37.32;23.26;100495.69;5014057;28;19917;-88
2022/06/14 12:15:47;;;;;;;;;;;;;;;37.26;24.12;100499.91;5025220;28;19914;-88
2022/06/14 12:18:13;;;;;;;;;;;;;;;37.21;24.40;100498.13;4999602;28;20032;-88
2022/06/14 12:20:58;;;;;;;;;;;;;;;37.18;24.50;100505.25;5015061;28;19929;-91
2022/06/14 12:23:27;;;;;;;;;;;;;;;36.96;24.80;100511.19;5024584;28;19976;-92
2022/06/14 12:28:55;;;;;;;;;;;;;;;37.03;26.03;100508.63;5014268;28;19983;-89
2022/06/14 12:31:27;;;;;;;;;;;;;;;36.75;26.53;100514.81;5015921;28;19918;-88
2022/06/14 12:34:21;;;;;;;;;;;;;;;36.89;26.97;100522.94;5021917;28;19921;-91
2022/06/14 12:37:18;;;;;;;;;;;;;;;36.92;26.90;100515.81;5017015;28;20219;-88
2022/06/14 12:40:02;;;;;;;;;;;;;;;37.05;27.18;100511.91;5013974;28;19932;-89
2022/06/14 12:42:48;;;;;;;;;;;;;;;36.85;28.05;100505.16;5031129;28;19929;-88
2022/06/14 12:45:18;;;;;;;;;;;;;;;36.83;27.96;100498.25;5017206;28;19954;-90
2022/06/14 12:48:03;;;;;;;;;;;;;;;36.66;28.34;100511.25;5014068;28;19921;-89
2022/06/14 12:50:30;;;;;;;;;;;;;;;36.41;28.03;100504.66;5018764;28;20397;-87
2022/06/14 12:52:58;;;;;;;;;;;;;;;36.35;28.08;100501.22;5022993;28;19917;-87
2022/06/14 12:55:31;;;;;;;;;;;;;;;36.04;28.09;100495.13;5012927;28;19921;-89
2022/06/14 12:58:16;;;;;;;;;;;;;;;35.85;28.65;100490.78;5024401;28;19922;-89
2022/06/14 13:00:48;;;;;;;;;;;;;;;35.81;28.95;100501.00;5021605;28;19917;-86
2022/06/14 13:03:16;;;;;;;;;;;;;;;35.71;29.29;100495.78;5013679;28;19943;-87
2022/06/14 13:05:48;;;;;;;;;;;;;;;35.35;29.67;100499.78;5018230;28;19917;-85
2022/06/14 13:08:25;;;;;;;;;;;;;;;35.03;29.73;100493.56;4995098;28;19976;-84
2022/06/14 13:11:10;;;;;;;;;;;;;;;34.76;30.45;100494.72;4996896;28;19967;-86
2022/06/14 13:14:04;;;;;;;;;;;;;;;34.45;31.31;100500.41;5010241;28;19932;-87
2022/06/14 13:16:46;;;;;;;;;;;;;;;34.28;31.55;100494.78;5027115;28;19920;-87
2022/06/14 13:19:31;;;;;;;;;;;;;;;33.90;30.98;100503.66;5016938;28;20013;-89
2022/06/14 13:22:04;;;;;;;;;;;;;;;33.63;32.29;100505.50;5015761;28;19917;-88
2022/06/14 13:24:49;;;;;;;;;;;;;;;33.65;32.63;100506.03;5014885;28;19913;-88
2022/06/14 13:27:24;;;;;;;;;;;;;;;33.51;32.98;100506.06;5015398;28;19914;-87
2022/06/14 13:30:00;;;;;;;;;;;;;;;33.18;34.36;100508.31;5012136;28;19917;-88
2022/06/14 13:32:44;;;;;;;;;;;;;;;31.86;38.72;100504.44;4994054;28;20052;-86